sensor_id;sensor_type;location;lat;lon;timestamp;pressure;altitude;pressure_sealevel;temperature;humidity
32875;BME280;40468;42.128;24.750;2022-09-09T00:00:28;99866.47;;;20.44;56.83
32875;BME280;40468;42.128;24.750;2022-09-09T00:02:10;99865.63;;;20.43;56.75
32875;BME280;40468;42.128;24.750;2022-09-09T00:03:51;99870.34;;;20.40;56.93
32875;BME280;40468;42.128;24.750;2022-09-09T00:05:31;99872.41;;;20.36;57.14
32875;BME280;40468;42.128;24.750;2022-09-09T00:07:10;99864.59;;;20.35;57.01
32875;BME280;40468;42.128;24.750;2022-09-09T00:09:01;99863.75;;;20.34;57.06
32875;BME280;40468;42.128;24.750;2022-09-09T00:10:37;99867.22;;;20.35;57.17
32875;BME280;40468;42.128;24.750;2022-09-09T00:12:14;99863.75;;;20.34;56.95
32875;BME280;40468;42.128;24.750;2022-09-09T00:13:50;99866.66;;;20.31;57.09
32875;BME280;40468;42.128;24.750;2022-09-09T00:15:25;99865.00;;;20.30;57.00
32875;BME280;40468;42.128;24.750;2022-09-09T00:17:02;99874.75;;;20.30;57.08
32875;BME280;40468;42.128;24.750;2022-09-09T00:18:49;99874.84;;;20.28;57.47
32875;BME280;40468;42.128;24.750;2022-09-09T00:20:29;99865.38;;;20.26;57.38
32875;BME280;40468;42.128;24.750;2022-09-09T00:22:14;99865.63;;;20.22;57.42
32875;BME280;40468;42.128;24.750;2022-09-09T00:23:50;99862.16;;;20.22;57.38
32875;BME280;40468;42.128;24.750;2022-09-09T00:25:28;99866.72;;;20.20;57.39
32875;BME280;40468;42.128;24.750;2022-09-09T00:27:05;99864.22;;;20.18;57.52
32875;BME280;40468;42.128;24.750;2022-09-09T00:28:40;99870.34;;;20.19;57.40
32875;BME280;40468;42.128;24.750;2022-09-09T00:30:15;99870.34;;;20.19;57.62
32875;BME280;40468;42.128;24.750;2022-09-09T00:31:50;99880.19;;;20.17;57.67
32875;BME280;40468;42.128;24.750;2022-09-09T00:33:26;99876.88;;;20.15;57.79
32875;BME280;40468;42.128;24.750;2022-09-09T00:35:03;99882.28;;;20.13;57.70
32875;BME280;40468;42.128;24.750;2022-09-09T00:36:35;99884.19;;;20.11;57.67
32875;BME280;40468;42.128;24.750;2022-09-09T00:38:12;99879.16;;;20.08;57.76
32875;BME280;40468;42.128;24.750;2022-09-09T00:39:46;99887.25;;;20.07;57.93
32875;BME280;40468;42.128;24.750;2022-09-09T00:41:22;99888.91;;;20.08;57.85
32875;BME280;40468;42.128;24.750;2022-09-09T00:43:17;99885.31;;;20.09;58.01
32875;BME280;40468;42.128;24.750;2022-09-09T00:44:56;99879.41;;;20.05;58.09
32875;BME280;40468;42.128;24.750;2022-09-09T00:46:45;99885.56;;;20.06;58.09
32875;BME280;40468;42.128;24.750;2022-09-09T00:48:21;99880.53;;;20.03;58.16
32875;BME280;40468;42.128;24.750;2022-09-09T00:50:00;99885.84;;;20.03;58.07
32875;BME280;40468;42.128;24.750;2022-09-09T00:51:43;99874.38;;;20.02;58.27
32875;BME280;40468;42.128;24.750;2022-09-09T00:53:28;99880.81;;;19.99;58.19
32875;BME280;40468;42.128;24.750;2022-09-09T00:55:09;99878.16;;;19.99;58.19
32875;BME280;40468;42.128;24.750;2022-09-09T00:56:47;99887.88;;;19.99;58.10
32875;BME280;40468;42.128;24.750;2022-09-09T00:58:21;99884.78;;;19.94;58.36
32875;BME280;40468;42.128;24.750;2022-09-09T00:59:58;99882.25;;;19.92;58.46
32875;BME280;40468;42.128;24.750;2022-09-09T01:01:36;99875.41;;;19.90;58.43
32875;BME280;40468;42.128;24.750;2022-09-09T01:03:29;99887.78;;;19.89;58.48
32875;BME280;40468;42.128;24.750;2022-09-09T01:05:10;99891.28;;;19.90;58.60
32875;BME280;40468;42.128;24.750;2022-09-09T01:06:46;99887.06;;;19.87;58.41
32875;BME280;40468;42.128;24.750;2022-09-09T01:08:40;99900.19;;;19.89;58.71
32875;BME280;40468;42.128;24.750;2022-09-09T01:10:21;99888.78;;;19.88;58.79
32875;BME280;40468;42.128;24.750;2022-09-09T01:12:02;99887.94;;;19.88;58.67
32875;BME280;40468;42.128;24.750;2022-09-09T01:13:38;99881.22;;;19.84;58.55
32875;BME280;40468;42.128;24.750;2022-09-09T01:15:18;99883.13;;;19.82;58.80
32875;BME280;40468;42.128;24.750;2022-09-09T01:16:54;99890.47;;;19.78;58.78
32875;BME280;40468;42.128;24.750;2022-09-09T01:18:33;99881.97;;;19.74;59.09
32875;BME280;40468;42.128;24.750;2022-09-09T01:20:13;99879.84;;;19.68;58.92
32875;BME280;40468;42.128;24.750;2022-09-09T01:21:51;99877.09;;;19.59;59.17
32875;BME280;40468;42.128;24.750;2022-09-09T01:23:38;99880.41;;;19.61;59.17
32875;BME280;40468;42.128;24.750;2022-09-09T01:27:16;99882.97;;;19.51;59.56
32875;BME280;40468;42.128;24.750;2022-09-09T01:28:50;99884.66;;;19.52;59.66
32875;BME280;40468;42.128;24.750;2022-09-09T01:30:23;99878.66;;;19.50;59.69
32875;BME280;40468;42.128;24.750;2022-09-09T01:31:57;99887.53;;;19.49;59.68
32875;BME280;40468;42.128;24.750;2022-09-09T01:33:29;99884.78;;;19.50;59.72
32875;BME280;40468;42.128;24.750;2022-09-09T01:35:02;99883.94;;;19.50;59.66
32875;BME280;40468;42.128;24.750;2022-09-09T01:36:39;99883.94;;;19.50;59.90
32875;BME280;40468;42.128;24.750;2022-09-09T01:38:14;99879.59;;;19.49;59.85
32875;BME280;40468;42.128;24.750;2022-09-09T01:39:45;99877.94;;;19.48;59.84
32875;BME280;40468;42.128;24.750;2022-09-09T01:41:18;99881.31;;;19.50;59.86
32875;BME280;40468;42.128;24.750;2022-09-09T01:42:52;99878.78;;;19.48;60.05
32875;BME280;40468;42.128;24.750;2022-09-09T01:44:25;99867.97;;;19.40;59.98
32875;BME280;40468;42.128;24.750;2022-09-09T01:46:00;99874.97;;;19.41;60.20
32875;BME280;40468;42.128;24.750;2022-09-09T01:47:31;99875.22;;;19.38;60.32
32875;BME280;40468;42.128;24.750;2022-09-09T01:49:06;99878.69;;;19.39;60.41
32875;BME280;40468;42.128;24.750;2022-09-09T01:50:38;99876.06;;;19.39;60.33
32875;BME280;40468;42.128;24.750;2022-09-09T01:52:10;99869.94;;;19.38;60.49
32875;BME280;40468;42.128;24.750;2022-09-09T01:53:43;99872.56;;;19.38;60.43
32875;BME280;40468;42.128;24.750;2022-09-09T01:55:15;99877.97;;;19.37;60.47
32875;BME280;40468;42.128;24.750;2022-09-09T01:56:55;99874.00;;;19.31;60.60
32875;BME280;40468;42.128;24.750;2022-09-09T01:58:34;99874.16;;;19.29;60.72
32875;BME280;40468;42.128;24.750;2022-09-09T02:00:09;99871.19;;;19.23;60.49
32875;BME280;40468;42.128;24.750;2022-09-09T02:01:52;99878.72;;;19.27;60.74
32875;BME280;40468;42.128;24.750;2022-09-09T02:03:28;99874.50;;;19.25;60.89
32875;BME280;40468;42.128;24.750;2022-09-09T02:05:11;99872.44;;;19.28;60.77
32875;BME280;40468;42.128;24.750;2022-09-09T02:06:47;99876.06;;;19.27;60.79
32875;BME280;40468;42.128;24.750;2022-09-09T02:08:21;99875.97;;;19.29;60.85
32875;BME280;40468;42.128;24.750;2022-09-09T02:10:00;99869.38;;;19.23;60.86
32875;BME280;40468;42.128;24.750;2022-09-09T02:11:33;99880.38;;;19.28;60.97
32875;BME280;40468;42.128;24.750;2022-09-09T02:13:10;99878.72;;;19.27;61.17
32875;BME280;40468;42.128;24.750;2022-09-09T02:14:48;99873.69;;;19.24;61.17
32875;BME280;40468;42.128;24.750;2022-09-09T02:16:24;99873.69;;;19.24;61.00
32875;BME280;40468;42.128;24.750;2022-09-09T02:17:58;99873.91;;;19.21;61.16
32875;BME280;40468;42.128;24.750;2022-09-09T02:19:37;99877.53;;;19.20;61.24
32875;BME280;40468;42.128;24.750;2022-09-09T02:21:11;99868.78;;;19.20;61.26
32875;BME280;40468;42.128;24.750;2022-09-09T02:22:46;99869.72;;;19.19;61.41
32875;BME280;40468;42.128;24.750;2022-09-09T02:24:20;99864.44;;;19.19;61.36
32875;BME280;40468;42.128;24.750;2022-09-09T02:25:53;99851.25;;;19.07;61.70
32875;BME280;40468;42.128;24.750;2022-09-09T02:27:26;99864.81;;;19.14;61.40
32875;BME280;40468;42.128;24.750;2022-09-09T02:28:59;99864.94;;;19.13;61.50
32875;BME280;40468;42.128;24.750;2022-09-09T02:30:35;99859.78;;;19.11;61.51
32875;BME280;40468;42.128;24.750;2022-09-09T02:32:12;99875.75;;;19.09;61.69
32875;BME280;40468;42.128;24.750;2022-09-09T02:33:51;99870.59;;;19.08;61.84
32875;BME280;40468;42.128;24.750;2022-09-09T02:35:24;99869.63;;;19.09;61.79
32875;BME280;40468;42.128;24.750;2022-09-09T02:36:57;99855.72;;;18.96;62.01
32875;BME280;40468;42.128;24.750;2022-09-09T02:38:35;99870.94;;;19.03;61.89
32875;BME280;40468;42.128;24.750;2022-09-09T02:40:11;99871.19;;;19.00;61.80
32875;BME280;40468;42.128;24.750;2022-09-09T02:41:42;99866.16;;;18.97;61.62
32875;BME280;40468;42.128;24.750;2022-09-09T02:43:14;99873.34;;;18.95;61.68
32875;BME280;40468;42.128;24.750;2022-09-09T02:44:49;99873.59;;;18.92;61.79
32875;BME280;40468;42.128;24.750;2022-09-09T02:46:31;99880.81;;;18.90;61.92
32875;BME280;40468;42.128;24.750;2022-09-09T02:48:13;99877.44;;;18.88;62.12
32875;BME280;40468;42.128;24.750;2022-09-09T02:49:56;99872.28;;;18.86;62.11
32875;BME280;40468;42.128;24.750;2022-09-09T02:51:35;99876.72;;;18.86;62.06
32875;BME280;40468;42.128;24.750;2022-09-09T02:53:16;99877.53;;;18.86;62.05
32875;BME280;40468;42.128;24.750;2022-09-09T02:54:50;99880.19;;;18.86;62.10
32875;BME280;40468;42.128;24.750;2022-09-09T02:56:30;99864.84;;;18.80;61.97
32875;BME280;40468;42.128;24.750;2022-09-09T02:58:05;99873.25;;;18.85;61.82
32875;BME280;40468;42.128;24.750;2022-09-09T02:59:39;99885.34;;;18.88;61.90
32875;BME280;40468;42.128;24.750;2022-09-09T03:01:12;99881.88;;;18.88;62.08
32875;BME280;40468;42.128;24.750;2022-09-09T03:02:44;99883.56;;;18.89;61.95
32875;BME280;40468;42.128;24.750;2022-09-09T03:04:16;99886.19;;;18.89;61.90
32875;BME280;40468;42.128;24.750;2022-09-09T03:05:47;99885.34;;;18.88;61.88
32875;BME280;40468;42.128;24.750;2022-09-09T03:07:19;99881.88;;;18.88;61.65
32875;BME280;40468;42.128;24.750;2022-09-09T03:08:51;99884.03;;;18.82;61.73
32875;BME280;40468;42.128;24.750;2022-09-09T03:10:23;99890.16;;;18.83;61.89
32875;BME280;40468;42.128;24.750;2022-09-09T03:11:55;99880.44;;;18.83;61.71
32875;BME280;40468;42.128;24.750;2022-09-09T03:13:27;99878.03;;;18.80;61.77
32875;BME280;40468;42.128;24.750;2022-09-09T03:14:59;99886.78;;;18.81;61.81
32875;BME280;40468;42.128;24.750;2022-09-09T03:16:31;99882.38;;;18.81;61.67
32875;BME280;40468;42.128;24.750;2022-09-09T03:18:04;99879.72;;;18.81;61.77
32875;BME280;40468;42.128;24.750;2022-09-09T03:19:36;99887.03;;;18.78;61.82
32875;BME280;40468;42.128;24.750;2022-09-09T03:21:08;99883.69;;;18.76;61.99
32875;BME280;40468;42.128;24.750;2022-09-09T03:22:40;99889.50;;;18.68;62.27
32875;BME280;40468;42.128;24.750;2022-09-09T03:24:11;99898.50;;;18.65;62.41
32875;BME280;40468;42.128;24.750;2022-09-09T03:25:46;99903.16;;;18.62;62.58
32875;BME280;40468;42.128;24.750;2022-09-09T03:27:19;99901.75;;;18.58;62.62
32875;BME280;40468;42.128;24.750;2022-09-09T03:28:51;99898.47;;;18.54;62.73
32875;BME280;40468;42.128;24.750;2022-09-09T03:30:23;99900.75;;;18.48;63.09
32875;BME280;40468;42.128;24.750;2022-09-09T03:31:55;99902.56;;;18.47;63.02
32875;BME280;40468;42.128;24.750;2022-09-09T03:33:27;99907.94;;;18.46;63.08
32875;BME280;40468;42.128;24.750;2022-09-09T03:34:59;99909.13;;;18.41;63.28
32875;BME280;40468;42.128;24.750;2022-09-09T03:36:31;99918.59;;;18.44;63.16
32875;BME280;40468;42.128;24.750;2022-09-09T03:38:03;99912.72;;;18.40;63.50
32875;BME280;40468;42.128;24.750;2022-09-09T03:39:35;99913.91;;;18.36;63.52
32875;BME280;40468;42.128;24.750;2022-09-09T03:41:07;99918.72;;;18.31;63.85
32875;BME280;40468;42.128;24.750;2022-09-09T03:42:39;99922.41;;;18.29;63.84
32875;BME280;40468;42.128;24.750;2022-09-09T03:44:11;99919.16;;;18.25;64.04
32875;BME280;40468;42.128;24.750;2022-09-09T03:45:45;99914.59;;;18.27;63.90
32875;BME280;40468;42.128;24.750;2022-09-09T03:47:17;99919.63;;;18.30;64.03
32875;BME280;40468;42.128;24.750;2022-09-09T03:48:51;99920.38;;;18.32;63.92
32875;BME280;40468;42.128;24.750;2022-09-09T03:50:23;99924.69;;;18.33;63.82
32875;BME280;40468;42.128;24.750;2022-09-09T03:51:55;99914.28;;;18.32;63.94
32875;BME280;40468;42.128;24.750;2022-09-09T03:53:29;99912.69;;;18.29;63.87
32875;BME280;40468;42.128;24.750;2022-09-09T03:55:01;99915.09;;;18.32;63.87
32875;BME280;40468;42.128;24.750;2022-09-09T03:56:33;99915.84;;;18.34;63.82
32875;BME280;40468;42.128;24.750;2022-09-09T03:58:05;99918.25;;;18.37;63.77
32875;BME280;40468;42.128;24.750;2022-09-09T03:59:37;99914.78;;;18.37;63.72
32875;BME280;40468;42.128;24.750;2022-09-09T04:01:10;99910.09;;;18.40;63.68
32875;BME280;40468;42.128;24.750;2022-09-09T04:02:43;99909.97;;;18.42;63.69
32875;BME280;40468;42.128;24.750;2022-09-09T04:04:17;99901.94;;;18.44;63.65
32875;BME280;40468;42.128;24.750;2022-09-09T04:05:48;99907.22;;;18.44;63.56
32875;BME280;40468;42.128;24.750;2022-09-09T04:07:20;99909.25;;;18.40;63.70
32875;BME280;40468;42.128;24.750;2022-09-09T04:08:52;99908.63;;;18.36;63.74
32875;BME280;40468;42.128;24.750;2022-09-09T04:10:24;99913.31;;;18.33;63.78
32875;BME280;40468;42.128;24.750;2022-09-09T04:11:55;99912.69;;;18.29;64.08
32875;BME280;40468;42.128;24.750;2022-09-09T04:13:28;99912.94;;;18.26;64.05
32875;BME280;40468;42.128;24.750;2022-09-09T04:15:00;99910.84;;;18.18;64.48
32875;BME280;40468;42.128;24.750;2022-09-09T04:16:32;99910.75;;;18.20;64.38
32875;BME280;40468;42.128;24.750;2022-09-09T04:18:03;99912.44;;;18.21;64.44
32875;BME280;40468;42.128;24.750;2022-09-09T04:19:37;99913.16;;;18.23;64.22
32875;BME280;40468;42.128;24.750;2022-09-09T04:21:09;99914.84;;;18.24;64.20
32875;BME280;40468;42.128;24.750;2022-09-09T04:22:42;99912.94;;;18.26;64.04
32875;BME280;40468;42.128;24.750;2022-09-09T04:24:14;99910.16;;;18.28;64.09
32875;BME280;40468;42.128;24.750;2022-09-09T04:25:47;99903.81;;;18.30;64.21
32875;BME280;40468;42.128;24.750;2022-09-09T04:27:19;99896.66;;;18.32;64.18
32875;BME280;40468;42.128;24.750;2022-09-09T04:28:51;99898.31;;;18.33;64.14
32875;BME280;40468;42.128;24.750;2022-09-09T04:30:24;99896.41;;;18.35;64.10
32875;BME280;40468;42.128;24.750;2022-09-09T04:31:55;99897.25;;;18.36;64.25
32875;BME280;40468;42.128;24.750;2022-09-09T04:33:27;99912.22;;;18.35;64.19
32875;BME280;40468;42.128;24.750;2022-09-09T04:34:59;99913.91;;;18.36;64.11
32875;BME280;40468;42.128;24.750;2022-09-09T04:36:31;99906.97;;;18.35;64.17
32875;BME280;40468;42.128;24.750;2022-09-09T04:38:04;99914.03;;;18.35;64.27
32875;BME280;40468;42.128;24.750;2022-09-09T04:39:36;99911.50;;;18.33;64.22
32875;BME280;40468;42.128;24.750;2022-09-09T04:41:08;99912.56;;;18.31;64.29
32875;BME280;40468;42.128;24.750;2022-09-09T04:42:41;99915.34;;;18.29;64.60
32875;BME280;40468;42.128;24.750;2022-09-09T04:44:14;99915.66;;;18.25;64.68
32875;BME280;40468;42.128;24.750;2022-09-09T04:45:47;99914.59;;;18.27;64.77
32875;BME280;40468;42.128;24.750;2022-09-09T04:47:19;99920.59;;;18.29;64.51
32875;BME280;40468;42.128;24.750;2022-09-09T04:48:52;99923.09;;;18.31;64.42
32875;BME280;40468;42.128;24.750;2022-09-09T04:50:25;99929.94;;;18.33;64.38
32875;BME280;40468;42.128;24.750;2022-09-09T04:51:58;99929.03;;;18.34;64.39
32875;BME280;40468;42.128;24.750;2022-09-09T04:53:30;99925.66;;;18.32;64.55
32875;BME280;40468;42.128;24.750;2022-09-09T04:55:05;99921.94;;;18.35;64.39
32875;BME280;40468;42.128;24.750;2022-09-09T04:56:37;99934.16;;;18.36;64.19
32875;BME280;40468;42.128;24.750;2022-09-09T04:58:09;99939.34;;;18.37;64.42
32875;BME280;40468;42.128;24.750;2022-09-09T04:59:40;99940.28;;;18.36;64.23
32875;BME280;40468;42.128;24.750;2022-09-09T05:01:14;99943.63;;;18.38;64.24
32875;BME280;40468;42.128;24.750;2022-09-09T05:02:47;99939.44;;;18.36;64.20
32875;BME280;40468;42.128;24.750;2022-09-09T05:04:19;99939.94;;;18.41;63.97
32875;BME280;40468;42.128;24.750;2022-09-09T05:05:52;99937.91;;;18.45;63.98
32875;BME280;40468;42.128;24.750;2022-09-09T05:07:23;99921.34;;;18.31;63.86
32875;BME280;40468;42.128;24.750;2022-09-09T05:08:56;99938.50;;;18.37;63.65
32875;BME280;40468;42.128;24.750;2022-09-09T05:10:28;99938.38;;;18.38;63.61
32875;BME280;40468;42.128;24.750;2022-09-09T05:12:00;99939.94;;;18.41;63.45
32875;BME280;40468;42.128;24.750;2022-09-09T05:13:33;99941.72;;;18.40;63.47
32875;BME280;40468;42.128;24.750;2022-09-09T05:15:05;99941.50;;;18.44;63.45
32875;BME280;40468;42.128;24.750;2022-09-09T05:16:37;99940.44;;;18.46;63.32
32875;BME280;40468;42.128;24.750;2022-09-09T05:18:09;99934.09;;;18.49;63.31
32875;BME280;40468;42.128;24.750;2022-09-09T05:19:41;99929.66;;;18.49;63.34
32875;BME280;40468;42.128;24.750;2022-09-09T05:21:16;99929.53;;;18.51;63.18
32875;BME280;40468;42.128;24.750;2022-09-09T05:22:48;99938.41;;;18.50;63.05
32875;BME280;40468;42.128;24.750;2022-09-09T05:24:19;99932.63;;;18.45;62.77
32875;BME280;40468;42.128;24.750;2022-09-09T05:25:56;99926.16;;;18.37;62.82
32875;BME280;40468;42.128;24.750;2022-09-09T05:27:28;99934.91;;;18.38;62.78
32875;BME280;40468;42.128;24.750;2022-09-09T05:29:01;99925.41;;;18.35;62.73
32875;BME280;40468;42.128;24.750;2022-09-09T05:30:33;99918.34;;;18.36;62.66
32875;BME280;40468;42.128;24.750;2022-09-09T05:32:05;99923.75;;;18.34;62.94
32875;BME280;40468;42.128;24.750;2022-09-09T05:33:38;99916.44;;;18.38;62.79
32875;BME280;40468;42.128;24.750;2022-09-09T05:35:11;99926.03;;;18.50;62.47
32875;BME280;40468;42.128;24.750;2022-09-09T05:36:45;99928.59;;;18.63;62.33
32875;BME280;40468;42.128;24.750;2022-09-09T05:38:17;99928.72;;;18.73;61.94
32875;BME280;40468;42.128;24.750;2022-09-09T05:39:50;99930.22;;;18.88;61.73
32875;BME280;40468;42.128;24.750;2022-09-09T05:41:22;99933.44;;;19.03;61.56
32875;BME280;40468;42.128;24.750;2022-09-09T05:42:54;99927.78;;;19.19;61.25
32875;BME280;40468;42.128;24.750;2022-09-09T05:44:26;99930.91;;;19.35;60.51
32875;BME280;40468;42.128;24.750;2022-09-09T05:46:00;99928.38;;;19.45;59.73
32875;BME280;40468;42.128;24.750;2022-09-09T05:47:33;99929.28;;;19.55;59.68
32875;BME280;40468;42.128;24.750;2022-09-09T05:49:04;99929.31;;;19.66;59.53
32875;BME280;40468;42.128;24.750;2022-09-09T05:50:37;99930.75;;;19.70;58.68
32875;BME280;40468;42.128;24.750;2022-09-09T05:52:09;99922.06;;;19.80;58.38
32875;BME280;40468;42.128;24.750;2022-09-09T05:53:41;99923.56;;;19.93;58.40
32875;BME280;40468;42.128;24.750;2022-09-09T05:55:14;99921.97;;;20.02;58.01
32875;BME280;40468;42.128;24.750;2022-09-09T05:56:46;99918.72;;;20.10;57.38
32875;BME280;40468;42.128;24.750;2022-09-09T05:58:19;99921.56;;;20.18;56.95
32875;BME280;40468;42.128;24.750;2022-09-09T05:59:51;99927.16;;;20.25;56.59
32875;BME280;40468;42.128;24.750;2022-09-09T06:01:25;99923.44;;;20.27;56.59
32875;BME280;40468;42.128;24.750;2022-09-09T06:02:57;99924.59;;;20.34;56.12
32875;BME280;40468;42.128;24.750;2022-09-09T06:04:29;99931.47;;;20.46;56.08
32875;BME280;40468;42.128;24.750;2022-09-09T06:06:03;99920.19;;;20.56;55.71
32875;BME280;40468;42.128;24.750;2022-09-09T06:07:38;99911.84;;;20.60;55.15
32875;BME280;40468;42.128;24.750;2022-09-09T06:09:12;99903.25;;;20.68;55.21
32875;BME280;40468;42.128;24.750;2022-09-09T06:10:45;99906.59;;;20.70;54.80
32875;BME280;40468;42.128;24.750;2022-09-09T06:12:16;99899.63;;;20.69;54.76
32875;BME280;40468;42.128;24.750;2022-09-09T06:13:48;99891.50;;;20.61;54.56
32875;BME280;40468;42.128;24.750;2022-09-09T06:15:21;99898.59;;;20.60;54.26
32875;BME280;40468;42.128;24.750;2022-09-09T06:16:53;99907.31;;;20.51;54.54
32875;BME280;40468;42.128;24.750;2022-09-09T06:18:26;99906.81;;;20.57;54.66
32875;BME280;40468;42.128;24.750;2022-09-09T06:19:59;99900.16;;;20.63;54.41
32875;BME280;40468;42.128;24.750;2022-09-09T06:21:32;99903.94;;;20.70;54.46
32875;BME280;40468;42.128;24.750;2022-09-09T06:23:07;99904.84;;;20.80;54.44
32875;BME280;40468;42.128;24.750;2022-09-09T06:24:39;99904.03;;;20.89;54.37
32875;BME280;40468;42.128;24.750;2022-09-09T06:26:12;99902.97;;;21.02;53.87
32875;BME280;40468;42.128;24.750;2022-09-09T06:27:48;99899.41;;;21.12;53.76
32875;BME280;40468;42.128;24.750;2022-09-09T06:29:20;99900.53;;;21.20;53.65
32875;BME280;40468;42.128;24.750;2022-09-09T06:30:57;99894.69;;;21.26;53.01
32875;BME280;40468;42.128;24.750;2022-09-09T06:32:29;99895.94;;;21.22;53.02
32875;BME280;40468;42.128;24.750;2022-09-09T06:34:04;99891.31;;;21.14;53.04
32875;BME280;40468;42.128;24.750;2022-09-09T06:35:36;99909.63;;;21.27;52.89
32875;BME280;40468;42.128;24.750;2022-09-09T06:37:08;99916.31;;;21.31;52.88
32875;BME280;40468;42.128;24.750;2022-09-09T06:38:42;99914.81;;;21.38;52.80
32875;BME280;40468;42.128;24.750;2022-09-09T06:40:14;99914.16;;;21.46;52.56
32875;BME280;40468;42.128;24.750;2022-09-09T06:41:46;99916.97;;;21.54;52.38
32875;BME280;40468;42.128;24.750;2022-09-09T06:43:19;99916.41;;;21.60;52.58
32875;BME280;40468;42.128;24.750;2022-09-09T06:44:51;99917.41;;;21.69;52.59
32875;BME280;40468;42.128;24.750;2022-09-09T06:46:25;99918.94;;;21.81;52.45
32875;BME280;40468;42.128;24.750;2022-09-09T06:47:58;99918.09;;;21.90;51.99
32875;BME280;40468;42.128;24.750;2022-09-09T06:49:29;99921.75;;;21.99;51.75
32875;BME280;40468;42.128;24.750;2022-09-09T06:51:03;99923.56;;;22.08;51.75
32875;BME280;40468;42.128;24.750;2022-09-09T06:52:34;99923.69;;;22.16;51.72
32875;BME280;40468;42.128;24.750;2022-09-09T06:54:07;99920.63;;;22.21;51.37
32875;BME280;40468;42.128;24.750;2022-09-09T06:55:40;99923.72;;;22.26;51.35
32875;BME280;40468;42.128;24.750;2022-09-09T06:57:14;99922.19;;;22.33;50.80
32875;BME280;40468;42.128;24.750;2022-09-09T06:58:46;99912.22;;;22.45;50.93
32875;BME280;40468;42.128;24.750;2022-09-09T07:00:19;99918.19;;;22.57;50.53
32875;BME280;40468;42.128;24.750;2022-09-09T07:01:51;99919.72;;;22.69;50.70
32875;BME280;40468;42.128;24.750;2022-09-09T07:03:25;99918.03;;;22.78;50.16
32875;BME280;40468;42.128;24.750;2022-09-09T07:04:56;99917.97;;;22.87;49.57
32875;BME280;40468;42.128;24.750;2022-09-09T07:06:31;99913.19;;;23.01;49.84
32875;BME280;40468;42.128;24.750;2022-09-09T07:08:03;99914.00;;;23.11;49.56
32875;BME280;40468;42.128;24.750;2022-09-09T07:09:37;99912.81;;;23.23;49.16
32875;BME280;40468;42.128;24.750;2022-09-09T07:11:09;99910.81;;;23.35;48.96
32875;BME280;40468;42.128;24.750;2022-09-09T07:12:41;99915.09;;;23.46;48.75
32875;BME280;40468;42.128;24.750;2022-09-09T07:14:14;99912.88;;;23.59;48.02
32875;BME280;40468;42.128;24.750;2022-09-09T07:15:46;99909.88;;;23.72;47.95
32875;BME280;40468;42.128;24.750;2022-09-09T07:17:18;99911.88;;;23.88;47.51
32875;BME280;40468;42.128;24.750;2022-09-09T07:18:50;99908.13;;;23.98;47.20
32875;BME280;40468;42.128;24.750;2022-09-09T07:20:22;99914.00;;;24.02;46.64
32875;BME280;40468;42.128;24.750;2022-09-09T07:21:54;99919.03;;;24.05;45.98
32875;BME280;40468;42.128;24.750;2022-09-09T07:23:26;99919.53;;;24.09;45.92
32875;BME280;40468;42.128;24.750;2022-09-09T07:24:58;99918.50;;;24.27;45.86
32875;BME280;40468;42.128;24.750;2022-09-09T07:26:30;99920.50;;;24.43;45.78
32875;BME280;40468;42.128;24.750;2022-09-09T07:28:02;99916.44;;;24.57;45.88
32875;BME280;40468;42.128;24.750;2022-09-09T07:29:34;99917.81;;;24.69;45.14
32875;BME280;40468;42.128;24.750;2022-09-09T07:31:12;99910.06;;;24.76;44.74
32875;BME280;40468;42.128;24.750;2022-09-09T07:32:45;99910.97;;;24.93;44.83
32875;BME280;40468;42.128;24.750;2022-09-09T07:34:17;99914.88;;;25.07;44.30
32875;BME280;40468;42.128;24.750;2022-09-09T07:35:49;99920.09;;;25.16;43.51
32875;BME280;40468;42.128;24.750;2022-09-09T07:37:21;99912.00;;;25.26;43.54
32875;BME280;40468;42.128;24.750;2022-09-09T07:38:56;99907.50;;;25.35;43.65
32875;BME280;40468;42.128;24.750;2022-09-09T07:40:29;99905.72;;;25.52;43.57
32875;BME280;40468;42.128;24.750;2022-09-09T07:42:01;99907.59;;;25.68;42.94
32875;BME280;40468;42.128;24.750;2022-09-09T07:43:34;99906.47;;;25.86;42.92
32875;BME280;40468;42.128;24.750;2022-09-09T07:45:06;99906.66;;;26.09;42.35
32875;BME280;40468;42.128;24.750;2022-09-09T07:46:39;99914.66;;;26.26;41.81
32875;BME280;40468;42.128;24.750;2022-09-09T07:48:11;99900.63;;;26.40;41.83
32875;BME280;40468;42.128;24.750;2022-09-09T07:49:43;99913.13;;;26.56;41.74
32875;BME280;40468;42.128;24.750;2022-09-09T07:51:17;99901.25;;;26.75;41.24
32875;BME280;40468;42.128;24.750;2022-09-09T07:52:50;99903.84;;;26.99;41.19
32875;BME280;40468;42.128;24.750;2022-09-09T07:54:22;99901.44;;;27.13;40.31
32875;BME280;40468;42.128;24.750;2022-09-09T07:56:04;99905.44;;;27.25;39.97
32875;BME280;40468;42.128;24.750;2022-09-09T07:57:36;99892.31;;;27.38;39.59
32875;BME280;40468;42.128;24.750;2022-09-09T07:59:08;99894.44;;;27.51;39.59
32875;BME280;40468;42.128;24.750;2022-09-09T08:00:41;99893.00;;;27.63;39.25
32875;BME280;40468;42.128;24.750;2022-09-09T08:02:14;99890.44;;;27.70;38.96
32875;BME280;40468;42.128;24.750;2022-09-09T08:03:46;99891.72;;;27.82;38.38
32875;BME280;40468;42.128;24.750;2022-09-09T08:05:18;99888.13;;;27.98;38.17
32875;BME280;40468;42.128;24.750;2022-09-09T08:06:51;99886.66;;;28.10;38.03
32875;BME280;40468;42.128;24.750;2022-09-09T08:08:24;99879.50;;;28.26;37.63
32875;BME280;40468;42.128;24.750;2022-09-09T08:09:57;99887.91;;;28.38;37.59
32875;BME280;40468;42.128;24.750;2022-09-09T08:11:30;99886.75;;;28.55;37.11
32875;BME280;40468;42.128;24.750;2022-09-09T08:13:03;99880.28;;;28.64;36.34
32875;BME280;40468;42.128;24.750;2022-09-09T08:14:35;99881.50;;;28.47;36.27